createdAt,value
2022-12-08T00:01:45.814Z,5.20
2022-12-08T00:04:14.140Z,5.20
2022-12-08T00:07:02.501Z,5.20
2022-12-08T00:09:38.262Z,5.20
2022-12-08T00:12:09.069Z,5.20
2022-12-08T00:14:39.386Z,5.20
2022-12-08T00:17:09.790Z,5.20
2022-12-08T00:19:40.087Z,5.20
2022-12-08T00:22:12.190Z,5.10
2022-12-08T00:24:41.611Z,5.10
2022-12-08T00:27:10.657Z,5.10
2022-12-08T00:29:39.297Z,5.10
2022-12-08T00:32:07.857Z,5.10
2022-12-08T00:34:36.120Z,5.10
2022-12-08T00:37:04.210Z,5.10
2022-12-08T00:39:33.732Z,5.10
2022-12-08T00:42:13.607Z,5.10
2022-12-08T00:44:42.153Z,5.10
2022-12-08T00:47:10.682Z,5.10
2022-12-08T00:49:38.873Z,5.10
2022-12-08T00:52:07.561Z,5.10
2022-12-08T00:54:37.061Z,5.10
2022-12-08T00:57:05.338Z,5.10
2022-12-08T00:59:33.461Z,5.10
2022-12-08T01:02:01.570Z,5.10
2022-12-08T01:04:29.702Z,5.00
2022-12-08T01:06:57.731Z,5.00
2022-12-08T01:09:25.811Z,5.00
2022-12-08T01:11:55.225Z,5.00
2022-12-08T01:14:23.656Z,5.00
2022-12-08T01:16:51.925Z,5.00
2022-12-08T01:19:20.225Z,4.90
2022-12-08T01:21:48.442Z,5.00
2022-12-08T01:24:18.547Z,4.90
2022-12-08T01:26:47.114Z,4.90
2022-12-08T01:29:17.011Z,4.90
2022-12-08T01:31:45.301Z,4.90
2022-12-08T01:34:13.668Z,5.00
2022-12-08T01:36:42.220Z,4.90
2022-12-08T01:39:15.258Z,5.00
2022-12-08T01:41:44.956Z,5.00
2022-12-08T01:44:50.369Z,5.00
2022-12-08T01:47:20.026Z,5.00
2022-12-08T01:49:48.672Z,5.00
2022-12-08T01:52:20.895Z,5.10
2022-12-08T01:54:57.125Z,5.10
2022-12-08T01:57:28.529Z,5.10
2022-12-08T02:00:02.755Z,5.10
2022-12-08T02:02:37.822Z,5.10
2022-12-08T02:05:07.939Z,5.10
2022-12-08T02:07:37.336Z,5.10
2022-12-08T02:10:06.976Z,5.10
2022-12-08T02:12:35.268Z,5.10
2022-12-08T02:15:05.714Z,5.10
2022-12-08T02:17:48.524Z,5.10
2022-12-08T02:20:31.514Z,5.10
2022-12-08T02:23:08.939Z,5.10
2022-12-08T02:25:45.409Z,5.10
2022-12-08T02:28:39.144Z,5.20
2022-12-08T02:31:16.724Z,5.10
2022-12-08T02:34:10.964Z,5.10
2022-12-08T02:36:48.036Z,5.10
2022-12-08T02:39:26.885Z,5.10
2022-12-08T02:42:03.344Z,5.10
2022-12-08T02:44:35.277Z,5.10
2022-12-08T02:47:09.088Z,5.10
2022-12-08T02:49:38.644Z,5.10
2022-12-08T02:52:08.529Z,5.10
2022-12-08T02:54:37.764Z,5.10
2022-12-08T02:57:23.220Z,5.10
2022-12-08T03:00:04.084Z,5.10
2022-12-08T03:02:51.222Z,5.10
2022-12-08T03:05:32.809Z,5.10
2022-12-08T03:08:08.166Z,5.10
2022-12-08T03:10:41.885Z,5.10
2022-12-08T03:13:13.973Z,5.10
2022-12-08T03:15:44.231Z,5.10
2022-12-08T03:18:15.987Z,5.10
2022-12-08T03:20:47.023Z,5.10
2022-12-08T03:23:18.268Z,5.00
2022-12-08T03:25:53.526Z,5.10
2022-12-08T03:28:21.826Z,5.00
2022-12-08T03:30:53.451Z,5.00
2022-12-08T03:33:26.524Z,5.10
2022-12-08T03:35:56.716Z,5.10
2022-12-08T03:38:24.834Z,5.10
2022-12-08T03:41:06.870Z,5.10
2022-12-08T03:43:34.994Z,5.10
2022-12-08T03:46:03.211Z,5.10
2022-12-08T03:48:31.373Z,5.10
2022-12-08T03:51:00.791Z,5.10
2022-12-08T03:53:28.820Z,5.10
2022-12-08T03:55:56.885Z,5.10
2022-12-08T03:58:24.957Z,5.10
2022-12-08T04:00:53.075Z,5.10
2022-12-08T04:03:21.223Z,5.10
2022-12-08T04:05:49.269Z,5.10
2022-12-08T04:08:18.585Z,5.10
2022-12-08T04:10:46.725Z,5.00
2022-12-08T04:13:14.847Z,5.10
2022-12-08T04:15:46.662Z,5.00
2022-12-08T04:18:15.368Z,5.00
2022-12-08T04:20:45.376Z,5.00
2022-12-08T04:23:13.664Z,5.00
2022-12-08T04:25:43.335Z,5.00
2022-12-08T04:28:11.552Z,5.00
2022-12-08T04:30:39.899Z,5.00
2022-12-08T04:33:07.977Z,4.90
2022-12-08T04:35:36.126Z,4.90
2022-12-08T04:38:04.247Z,4.90
2022-12-08T04:40:33.559Z,4.90
2022-12-08T04:43:02.992Z,4.90
2022-12-08T04:45:31.238Z,4.80
2022-12-08T04:47:59.678Z,4.90
2022-12-08T04:50:28.450Z,4.80
2022-12-08T04:52:56.605Z,4.90
2022-12-08T04:55:24.643Z,4.90
2022-12-08T04:57:52.819Z,4.90
2022-12-08T05:00:22.493Z,4.90
2022-12-08T05:02:50.644Z,4.90
2022-12-08T05:05:18.896Z,4.90
2022-12-08T05:07:46.861Z,4.90
2022-12-08T05:10:14.978Z,4.90
2022-12-08T05:12:43.164Z,4.90
2022-12-08T05:15:11.462Z,4.90
2022-12-08T05:17:40.926Z,4.90
2022-12-08T05:20:10.267Z,4.90
2022-12-08T05:22:38.435Z,4.90
2022-12-08T05:25:07.163Z,4.90
2022-12-08T05:27:35.224Z,4.90
2022-12-08T05:30:03.688Z,4.90
2022-12-08T05:32:31.859Z,4.90
2022-12-08T05:35:01.309Z,4.90
2022-12-08T05:37:29.374Z,4.90
2022-12-08T05:39:57.468Z,4.90
2022-12-08T05:42:25.607Z,4.80
2022-12-08T05:44:53.704Z,4.80
2022-12-08T05:47:21.998Z,4.80
2022-12-08T05:49:50.359Z,4.80
2022-12-08T05:52:19.806Z,4.80
2022-12-08T05:54:47.876Z,4.90
2022-12-08T05:57:15.972Z,4.90
2022-12-08T05:59:44.323Z,4.90
2022-12-08T06:02:12.679Z,4.90
2022-12-08T06:04:41.287Z,4.90
2022-12-08T06:07:15.812Z,4.90
2022-12-08T06:09:45.708Z,4.80
2022-12-08T06:12:13.893Z,4.90
2022-12-08T06:14:42.067Z,4.80
2022-12-08T06:17:10.264Z,4.90
2022-12-08T06:19:38.363Z,4.90
2022-12-08T06:22:06.621Z,4.90
2022-12-08T06:24:34.646Z,4.80
2022-12-08T06:27:04.095Z,4.70
2022-12-08T06:29:32.194Z,4.70
2022-12-08T06:32:00.347Z,4.70
2022-12-08T06:34:28.598Z,4.70
2022-12-08T06:36:56.712Z,4.70
2022-12-08T06:39:24.834Z,4.70
2022-12-08T06:42:11.289Z,4.60
2022-12-08T06:44:41.417Z,4.60
2022-12-08T06:47:09.481Z,4.60
2022-12-08T06:49:37.528Z,4.60
2022-12-08T06:52:05.914Z,4.50
2022-12-08T06:54:34.096Z,4.50
2022-12-08T06:57:02.178Z,4.40
2022-12-08T06:59:30.319Z,4.40
2022-12-08T07:01:59.797Z,4.30
2022-12-08T07:04:28.059Z,4.30
2022-12-08T07:06:56.072Z,4.30
2022-12-08T07:09:24.247Z,4.20
2022-12-08T07:11:52.336Z,4.20
2022-12-08T07:14:23.646Z,4.20
2022-12-08T07:16:51.888Z,4.20
2022-12-08T07:19:21.257Z,4.20
2022-12-08T07:21:49.587Z,4.20
2022-12-08T07:24:17.724Z,4.20
2022-12-08T07:26:45.865Z,4.10
2022-12-08T07:29:14.143Z,4.10
2022-12-08T07:31:42.751Z,4.10
2022-12-08T07:34:12.977Z,4.00
2022-12-08T07:36:42.583Z,4.00
2022-12-08T07:39:10.906Z,4.00
2022-12-08T07:41:39.082Z,4.00
2022-12-08T07:44:07.284Z,3.90
2022-12-08T07:46:35.442Z,3.90
2022-12-08T07:49:03.659Z,3.90
2022-12-08T07:51:31.750Z,4.00
2022-12-08T07:54:01.173Z,3.90
2022-12-08T07:56:29.212Z,3.90
2022-12-08T07:58:57.331Z,3.90
2022-12-08T08:01:28.342Z,3.80
2022-12-08T08:03:57.967Z,3.90
2022-12-08T08:06:26.175Z,3.80
2022-12-08T08:08:54.546Z,3.80
2022-12-08T08:11:24.400Z,3.80
2022-12-08T08:13:53.259Z,3.80
2022-12-08T08:16:22.404Z,3.80
2022-12-08T08:18:51.322Z,3.90
2022-12-08T08:21:44.430Z,3.80
2022-12-08T08:24:10.143Z,3.80
2022-12-08T08:26:39.616Z,3.80
2022-12-08T08:29:07.729Z,3.80
2022-12-08T08:31:35.865Z,3.80
2022-12-08T08:34:06.468Z,3.80
2022-12-08T08:36:34.893Z,3.80
2022-12-08T08:39:03.189Z,3.80
2022-12-08T08:41:31.316Z,3.80
2022-12-08T08:44:00.852Z,3.80
2022-12-08T08:46:29.160Z,3.80
2022-12-08T08:48:58.136Z,3.80
2022-12-08T08:51:26.277Z,3.80
2022-12-08T08:53:54.397Z,3.80
2022-12-08T08:56:22.465Z,3.80
2022-12-08T08:58:51.311Z,3.90
2022-12-08T09:01:22.526Z,3.90
2022-12-08T09:03:50.978Z,3.90
2022-12-08T09:06:19.330Z,3.90
2022-12-08T09:08:48.356Z,3.90
2022-12-08T09:11:18.659Z,3.90
2022-12-08T09:13:49.328Z,4.00
2022-12-08T09:16:18.767Z,4.00
2022-12-08T09:18:49.382Z,4.00
2022-12-08T09:21:22.348Z,4.10
2022-12-08T09:23:51.040Z,4.20
2022-12-08T09:26:22.493Z,4.20
2022-12-08T09:28:51.082Z,4.20
2022-12-08T09:31:20.277Z,4.20
2022-12-08T09:33:51.629Z,4.30
2022-12-08T09:36:20.280Z,4.30
2022-12-08T09:38:49.193Z,4.30
2022-12-08T09:41:23.118Z,4.30
2022-12-08T09:44:01.489Z,4.40
2022-12-08T09:46:33.563Z,4.40
2022-12-08T09:49:04.284Z,4.40
2022-12-08T09:51:36.421Z,4.50
2022-12-08T09:54:08.746Z,4.60
2022-12-08T09:56:38.630Z,4.50
2022-12-08T09:59:18.547Z,4.50
2022-12-08T10:01:46.863Z,4.60
2022-12-08T10:04:23.868Z,4.60
2022-12-08T10:07:02.443Z,4.60
2022-12-08T10:09:38.577Z,4.60
2022-12-08T10:12:14.804Z,4.60
2022-12-08T10:14:45.357Z,4.70
2022-12-08T10:17:21.247Z,4.70
2022-12-08T10:19:52.092Z,4.70
2022-12-08T10:22:23.694Z,4.70
2022-12-08T10:25:01.075Z,4.70
2022-12-08T10:27:29.506Z,4.70
2022-12-08T10:29:57.790Z,4.70
2022-12-08T10:32:29.616Z,4.70
2022-12-08T10:35:05.576Z,4.70
2022-12-08T10:37:33.978Z,4.70
2022-12-08T10:40:04.969Z,4.70
2022-12-08T10:42:39.909Z,4.80
2022-12-08T10:45:25.863Z,4.80
2022-12-08T10:48:01.003Z,4.80
2022-12-08T10:50:36.307Z,4.90
2022-12-08T10:53:13.675Z,4.90
2022-12-08T10:55:44.513Z,5.00
2022-12-08T10:58:29.380Z,4.90
2022-12-08T11:01:01.939Z,4.90
2022-12-08T11:03:33.854Z,5.00
2022-12-08T11:06:13.378Z,4.90
2022-12-08T11:08:49.901Z,4.90
2022-12-08T11:11:21.989Z,4.90
2022-12-08T11:13:52.886Z,5.00
2022-12-08T11:16:21.523Z,5.00
2022-12-08T11:18:57.858Z,5.00
2022-12-08T11:21:35.332Z,5.00
2022-12-08T11:24:20.457Z,5.00
2022-12-08T11:26:52.301Z,4.90
2022-12-08T11:29:20.638Z,4.90
2022-12-08T11:31:53.602Z,4.90
2022-12-08T11:34:29.556Z,4.90
2022-12-08T11:36:59.587Z,4.90
2022-12-08T11:39:29.069Z,4.70
2022-12-08T11:41:59.431Z,4.70
2022-12-08T11:44:49.578Z,4.70
2022-12-08T11:47:22.193Z,4.70
2022-12-08T11:49:56.793Z,4.70
2022-12-08T11:52:31.660Z,4.80
2022-12-08T11:55:18.546Z,4.80
2022-12-08T11:57:47.108Z,4.70
2022-12-08T12:00:18.288Z,4.70
2022-12-08T12:02:49.820Z,4.60
2022-12-08T12:06:03.345Z,4.60
2022-12-08T12:08:38.519Z,4.70
2022-12-08T12:11:36.190Z,4.70
2022-12-08T12:14:17.486Z,4.70
2022-12-08T12:17:01.889Z,4.60
2022-12-08T12:19:34.498Z,4.70
2022-12-08T12:22:13.041Z,4.70
2022-12-08T12:24:46.485Z,4.70
2022-12-08T12:27:25.649Z,4.70
2022-12-08T12:29:58.918Z,4.60
2022-12-08T12:32:28.452Z,4.60
2022-12-08T12:34:59.731Z,4.70
2022-12-08T12:37:37.431Z,4.70
2022-12-08T12:40:16.472Z,4.70
2022-12-08T12:42:48.690Z,4.70
2022-12-08T12:45:29.632Z,4.60
2022-12-08T12:48:26.287Z,4.60
2022-12-08T12:50:55.388Z,4.60
2022-12-08T12:53:50.106Z,4.50
2022-12-08T12:56:54.503Z,4.40
2022-12-08T12:59:42.572Z,4.40
2022-12-08T13:02:21.108Z,4.50
2022-12-08T13:04:58.004Z,4.60
2022-12-08T13:07:29.501Z,4.50
2022-12-08T13:10:02.020Z,4.60
2022-12-08T13:12:31.832Z,4.60
2022-12-08T13:15:05.921Z,4.50
2022-12-08T13:17:38.204Z,4.60
2022-12-08T13:20:18.375Z,4.60
2022-12-08T13:23:04.064Z,4.70
2022-12-08T13:26:15.998Z,4.60
2022-12-08T13:29:23.788Z,4.70
2022-12-08T13:31:55.106Z,4.70
2022-12-08T13:34:33.652Z,4.80
2022-12-08T13:37:10.028Z,4.80
2022-12-08T13:39:44.447Z,4.80
2022-12-08T13:42:22.219Z,4.90
2022-12-08T13:45:21.496Z,4.90
2022-12-08T13:51:23.937Z,4.90
2022-12-08T13:59:30.492Z,4.90
2022-12-08T14:02:02.236Z,4.90
2022-12-08T14:04:54.640Z,4.90
2022-12-08T14:07:20.642Z,4.90
2022-12-08T14:09:49.379Z,4.90
2022-12-08T14:12:21.293Z,4.90
2022-12-08T14:15:03.168Z,4.80
2022-12-08T14:17:32.832Z,4.70
2022-12-08T14:20:04.655Z,4.70
2022-12-08T14:22:37.699Z,4.70
2022-12-08T14:25:07.725Z,4.70
2022-12-08T14:27:38.747Z,4.60
2022-12-08T14:30:08.696Z,4.60
2022-12-08T14:32:41.015Z,4.60
2022-12-08T14:35:23.196Z,4.60
2022-12-08T14:37:54.120Z,4.60
2022-12-08T14:40:24.420Z,4.60
2022-12-08T14:42:54.507Z,4.60
2022-12-08T14:45:22.983Z,4.60
2022-12-08T14:47:52.285Z,4.50
2022-12-08T14:50:42.570Z,4.50
2022-12-08T14:53:19.149Z,4.50
2022-12-08T14:55:49.496Z,4.50
2022-12-08T14:58:24.671Z,4.50
2022-12-08T15:00:56.825Z,4.50
2022-12-08T15:03:27.975Z,4.50
2022-12-08T15:06:00.496Z,4.50
2022-12-08T15:08:28.666Z,4.50
2022-12-08T15:11:30.781Z,4.50
2022-12-08T15:13:59.160Z,4.50
2022-12-08T15:16:30.223Z,4.50
2022-12-08T15:19:18.731Z,4.50
2022-12-08T15:21:48.591Z,4.50
2022-12-08T15:24:17.816Z,4.50
2022-12-08T15:26:48.171Z,4.50
2022-12-08T15:29:21.635Z,4.50
2022-12-08T15:31:49.973Z,4.50
2022-12-08T15:34:18.145Z,4.50
2022-12-08T15:36:46.393Z,4.50
2022-12-08T15:39:27.335Z,4.50
2022-12-08T15:41:55.404Z,4.50
2022-12-08T15:44:23.990Z,4.40
2022-12-08T15:46:52.259Z,4.40
2022-12-08T15:49:23.031Z,4.30
2022-12-08T15:51:55.691Z,4.30
2022-12-08T15:54:30.148Z,4.30
2022-12-08T15:59:47.790Z,4.30
2022-12-08T16:02:22.238Z,4.30
2022-12-08T16:07:39.509Z,4.30
2022-12-08T16:10:15.977Z,4.30
2022-12-08T16:15:59.312Z,4.30
2022-12-08T16:18:30.051Z,4.30
2022-12-08T16:21:31.706Z,4.30
2022-12-08T16:23:46.682Z,4.30
2022-12-08T16:26:44.396Z,4.30
2022-12-08T16:29:06.583Z,4.30
2022-12-08T16:31:34.826Z,4.20
2022-12-08T16:34:02.980Z,4.10
2022-12-08T16:36:31.007Z,4.10
2022-12-08T16:38:59.160Z,4.20
2022-12-08T16:41:46.116Z,4.10
2022-12-08T16:44:14.171Z,4.10
2022-12-08T16:46:42.241Z,4.00
2022-12-08T16:49:10.635Z,4.00
2022-12-08T16:51:38.732Z,4.00
2022-12-08T16:54:06.826Z,4.00
2022-12-08T16:56:36.289Z,4.00
2022-12-08T16:59:04.423Z,4.00
2022-12-08T17:01:32.694Z,4.00
2022-12-08T17:04:30.465Z,4.00
2022-12-08T17:06:50.909Z,4.00
2022-12-08T17:09:18.949Z,3.90
2022-12-08T17:11:48.381Z,3.90
2022-12-08T17:14:17.343Z,3.90
2022-12-08T17:16:45.891Z,3.90
2022-12-08T17:19:15.348Z,3.80
2022-12-08T17:21:44.475Z,3.80
2022-12-08T17:24:17.104Z,3.70
2022-12-08T17:26:50.035Z,3.70
2022-12-08T17:29:18.762Z,3.70
2022-12-08T17:31:47.009Z,3.70
2022-12-08T17:34:15.213Z,3.60
2022-12-08T17:36:43.446Z,3.60
2022-12-08T17:39:18.281Z,3.60
2022-12-08T17:41:48.676Z,3.60
2022-12-08T17:44:20.430Z,3.60
2022-12-08T17:46:52.824Z,3.50
2022-12-08T17:49:24.431Z,3.50
2022-12-08T17:51:54.525Z,3.40
2022-12-08T17:54:22.658Z,3.40
2022-12-08T17:56:52.232Z,3.40
2022-12-08T17:59:20.830Z,3.40
2022-12-08T18:01:49.022Z,3.30
2022-12-08T18:04:17.078Z,3.30
2022-12-08T18:06:45.137Z,3.30
2022-12-08T18:09:13.844Z,3.30
2022-12-08T18:11:42.490Z,3.20
2022-12-08T18:14:12.927Z,3.20
2022-12-08T18:16:43.468Z,3.20
2022-12-08T18:19:12.442Z,3.20
2022-12-08T18:21:41.680Z,3.20
2022-12-08T18:24:16.460Z,3.10
2022-12-08T18:26:44.471Z,3.10
2022-12-08T18:29:13.962Z,3.00
2022-12-08T18:31:42.097Z,3.00
2022-12-08T18:34:10.691Z,3.00
2022-12-08T18:36:39.321Z,3.00
2022-12-08T18:39:11.037Z,2.90
2022-12-08T18:41:39.600Z,2.90
2022-12-08T18:44:07.497Z,2.90
2022-12-08T18:46:36.984Z,2.90
2022-12-08T18:49:05.086Z,2.80
2022-12-08T18:51:33.236Z,2.80
2022-12-08T18:54:01.351Z,2.80
2022-12-08T18:56:31.244Z,2.80
2022-12-08T18:59:03.714Z,2.80
2022-12-08T19:01:32.687Z,2.90
2022-12-08T19:04:27.470Z,2.90
2022-12-08T19:06:53.404Z,2.90
2022-12-08T19:09:22.735Z,3.00
2022-12-08T19:11:51.215Z,3.00
2022-12-08T19:14:25.786Z,3.00
2022-12-08T19:16:56.411Z,3.00
2022-12-08T19:19:26.442Z,3.00
2022-12-08T19:21:55.310Z,3.00
2022-12-08T19:24:24.057Z,3.00
2022-12-08T19:26:52.614Z,2.90
2022-12-08T19:29:21.439Z,2.90
2022-12-08T19:31:51.000Z,2.90
2022-12-08T19:34:19.806Z,2.80
2022-12-08T19:36:49.950Z,2.80
2022-12-08T19:39:37.827Z,2.80
2022-12-08T19:42:29.465Z,2.80
2022-12-08T19:44:59.268Z,2.70
2022-12-08T19:47:28.357Z,2.70
2022-12-08T19:50:17.684Z,2.70
2022-12-08T19:52:47.291Z,2.70
2022-12-08T19:55:15.603Z,2.60
2022-12-08T19:57:45.803Z,2.60
2022-12-08T20:00:14.591Z,2.60
2022-12-08T20:02:43.025Z,2.60
2022-12-08T20:05:12.305Z,2.70
2022-12-08T20:07:40.949Z,2.60
2022-12-08T20:10:16.317Z,2.70
2022-12-08T20:12:44.709Z,2.70
2022-12-08T20:15:14.644Z,2.70
2022-12-08T20:17:43.545Z,2.70
2022-12-08T20:20:13.562Z,2.80
2022-12-08T20:22:42.059Z,2.80
2022-12-08T20:25:13.223Z,2.80
2022-12-08T20:27:42.513Z,2.80
2022-12-08T20:30:16.710Z,2.80
2022-12-08T20:32:45.332Z,2.80
2022-12-08T20:35:13.490Z,2.80
2022-12-08T20:37:41.622Z,2.90
2022-12-08T20:40:11.981Z,2.90
2022-12-08T20:42:40.200Z,2.90
2022-12-08T20:45:09.783Z,2.90
2022-12-08T20:47:38.677Z,2.90
2022-12-08T20:50:08.124Z,2.90
2022-12-08T20:52:38.360Z,2.90
2022-12-08T20:55:07.898Z,2.80
2022-12-08T20:57:37.489Z,2.90
2022-12-08T21:00:06.977Z,2.90
2022-12-08T21:02:35.954Z,2.90
2022-12-08T21:05:04.827Z,2.90
2022-12-08T21:07:33.712Z,2.90
2022-12-08T21:10:03.758Z,2.90
2022-12-08T21:12:33.417Z,3.00
2022-12-08T21:15:03.043Z,3.00
2022-12-08T21:17:32.312Z,3.00
2022-12-08T21:20:00.644Z,3.00
2022-12-08T21:22:28.887Z,3.00
2022-12-08T21:24:57.254Z,3.00
2022-12-08T21:27:25.456Z,3.00
2022-12-08T21:29:53.549Z,3.00
2022-12-08T21:32:28.636Z,3.10
2022-12-08T21:34:58.399Z,3.10
2022-12-08T21:37:26.747Z,3.10
2022-12-08T21:39:55.004Z,3.10
2022-12-08T21:42:40.638Z,3.10
2022-12-08T21:45:10.333Z,3.10
2022-12-08T21:47:40.274Z,3.20
2022-12-08T21:50:09.942Z,3.20
2022-12-08T21:52:39.717Z,3.20
2022-12-08T21:55:09.440Z,3.10
2022-12-08T21:57:37.712Z,3.20
2022-12-08T22:00:07.970Z,3.20
2022-12-08T22:02:36.578Z,3.20
2022-12-08T22:05:07.255Z,3.20
2022-12-08T22:07:38.200Z,3.30
2022-12-08T22:10:07.759Z,3.30
2022-12-08T22:12:36.488Z,3.30
2022-12-08T22:15:06.620Z,3.30
2022-12-08T22:17:38.058Z,3.30
2022-12-08T22:20:10.603Z,3.30
2022-12-08T22:22:39.238Z,3.30
2022-12-08T22:25:10.981Z,3.30
2022-12-08T22:27:40.064Z,3.40
2022-12-08T22:30:10.135Z,3.40
2022-12-08T22:32:38.699Z,3.40
2022-12-08T22:35:09.183Z,3.40
2022-12-08T22:37:37.488Z,3.40
2022-12-08T22:40:07.533Z,3.50
2022-12-08T22:42:36.156Z,3.50
2022-12-08T22:45:04.564Z,3.50
2022-12-08T22:47:32.751Z,3.50
2022-12-08T22:50:00.980Z,3.50
2022-12-08T22:52:30.577Z,3.50
2022-12-08T22:54:58.695Z,3.50
2022-12-08T22:57:26.957Z,3.50
2022-12-08T22:59:55.044Z,3.50
2022-12-08T23:02:23.144Z,3.60
2022-12-08T23:04:51.427Z,3.60
2022-12-08T23:07:19.623Z,3.60
2022-12-08T23:09:49.109Z,3.60
2022-12-08T23:12:19.227Z,3.60
2022-12-08T23:14:47.457Z,3.60
2022-12-08T23:17:15.820Z,3.60
2022-12-08T23:19:44.092Z,3.60
2022-12-08T23:22:12.248Z,3.60
2022-12-08T23:24:40.510Z,3.60
2022-12-08T23:27:10.202Z,3.60
2022-12-08T23:29:38.870Z,3.60
2022-12-08T23:32:07.511Z,3.60
2022-12-08T23:34:35.975Z,3.60
2022-12-08T23:37:04.117Z,3.60
2022-12-08T23:39:32.553Z,3.60
2022-12-08T23:42:00.646Z,3.50
2022-12-08T23:44:30.134Z,3.50
2022-12-08T23:46:58.701Z,3.50
2022-12-08T23:49:27.016Z,3.60
2022-12-08T23:51:55.219Z,3.60
2022-12-08T23:54:23.875Z,3.60
2022-12-08T23:56:52.173Z,3.60
2022-12-08T23:59:20.415Z,3.60
